createdAt,value
2018-09-28T00:00:14.584Z,11.47
2018-09-28T00:02:44.083Z,11.45
2018-09-28T00:05:13.277Z,11.35
2018-09-28T00:07:42.334Z,11.35
2018-09-28T00:10:11.563Z,11.31
2018-09-28T00:12:40.532Z,11.28
2018-09-28T00:15:09.784Z,11.20
2018-09-28T00:17:39.131Z,11.18
2018-09-28T00:20:08.409Z,11.07
2018-09-28T00:22:37.539Z,11.10
2018-09-28T00:25:06.913Z,11.09
2018-09-28T00:27:36.132Z,11.02
2018-09-28T00:30:05.536Z,10.92
2018-09-28T00:32:34.619Z,10.95
2018-09-28T00:35:03.993Z,10.87
2018-09-28T00:37:33.623Z,10.79
2018-09-28T00:40:02.767Z,10.78
2018-09-28T00:42:32.139Z,10.75
2018-09-28T00:45:01.346Z,10.70
2018-09-28T00:47:30.767Z,10.67
2018-09-28T00:50:00.067Z,10.60
2018-09-28T00:52:29.176Z,10.57
2018-09-28T00:54:58.383Z,10.54
2018-09-28T00:57:27.886Z,10.54
2018-09-28T00:59:57.254Z,10.52
2018-09-28T01:02:26.365Z,10.45
2018-09-28T01:04:55.659Z,10.36
2018-09-28T01:07:24.750Z,10.40
2018-09-28T01:09:53.836Z,10.31
2018-09-28T01:12:23.355Z,10.33
2018-09-28T01:14:52.740Z,10.27
2018-09-28T01:17:22.088Z,10.28
2018-09-28T01:19:51.490Z,10.27
2018-09-28T01:22:20.779Z,10.23
2018-09-28T01:24:49.957Z,10.14
2018-09-28T01:27:19.242Z,10.09
2018-09-28T01:29:48.415Z,10.08
2018-09-28T01:32:17.627Z,10.06
2018-09-28T01:34:46.817Z,10.11
2018-09-28T01:37:16.049Z,10.09
2018-09-28T01:39:45.257Z,10.06
2018-09-28T01:42:14.438Z,9.98
2018-09-28T01:44:43.715Z,9.98
2018-09-28T01:47:13.154Z,9.97
2018-09-28T01:49:42.295Z,9.94
2018-09-28T01:52:12.579Z,9.92
2018-09-28T01:54:41.866Z,9.96
2018-09-28T01:57:10.942Z,9.88
2018-09-28T01:59:40.140Z,9.87
2018-09-28T02:02:09.337Z,9.88
2018-09-28T02:04:38.415Z,9.78
2018-09-28T02:07:07.664Z,9.80
2018-09-28T02:09:37.000Z,9.86
2018-09-28T02:12:06.069Z,9.87
2018-09-28T02:14:35.325Z,9.94
2018-09-28T02:17:04.594Z,9.90
2018-09-28T02:19:33.802Z,10.03
2018-09-28T02:22:03.038Z,10.02
2018-09-28T02:24:32.249Z,10.09
2018-09-28T02:27:01.564Z,10.15
2018-09-28T02:29:30.619Z,10.18
2018-09-28T02:32:00.116Z,10.20
2018-09-28T02:34:29.629Z,10.41
2018-09-28T02:36:58.858Z,10.56
2018-09-28T02:39:28.016Z,10.62
2018-09-28T02:41:57.352Z,10.55
2018-09-28T02:44:26.578Z,10.72
2018-09-28T02:46:56.100Z,10.70
2018-09-28T02:49:25.315Z,10.57
2018-09-28T02:51:54.540Z,10.57
2018-09-28T02:54:24.323Z,10.58
2018-09-28T02:56:53.683Z,10.69
2018-09-28T02:59:23.011Z,10.75
2018-09-28T03:01:52.335Z,10.65
2018-09-28T03:04:21.434Z,10.71
2018-09-28T03:06:55.209Z,10.76
2018-09-28T03:09:24.437Z,10.82
2018-09-28T03:11:53.667Z,10.79
2018-09-28T03:14:22.933Z,10.78
2018-09-28T03:16:52.160Z,10.81
2018-09-28T03:19:21.437Z,10.77
2018-09-28T03:21:51.162Z,10.74
2018-09-28T03:24:20.439Z,10.77
2018-09-28T03:26:50.740Z,10.66
2018-09-28T03:29:19.931Z,10.60
2018-09-28T03:31:49.275Z,10.73
2018-09-28T03:34:18.541Z,10.82
2018-09-28T03:36:48.864Z,10.72
2018-09-28T03:39:18.054Z,10.79
2018-09-28T03:41:47.358Z,10.80
2018-09-28T03:44:16.843Z,10.68
2018-09-28T03:46:46.368Z,10.91
2018-09-28T03:49:15.505Z,10.77
2018-09-28T03:51:44.752Z,10.85
2018-09-28T03:54:14.140Z,10.82
2018-09-28T03:56:43.328Z,10.79
2018-09-28T03:59:12.853Z,10.75
2018-09-28T04:04:36.983Z,10.81
2018-09-28T04:07:05.559Z,10.75
2018-09-28T04:09:33.838Z,10.70
2018-09-28T04:12:02.280Z,10.70
2018-09-28T04:14:30.950Z,10.96
2018-09-28T04:16:59.957Z,10.81
2018-09-28T04:19:28.525Z,10.76
2018-09-28T04:21:59.621Z,10.62
2018-09-28T04:24:29.189Z,10.57
2018-09-28T04:26:58.833Z,10.63
2018-09-28T04:29:28.834Z,10.58
2018-09-28T04:31:57.266Z,10.51
2018-09-28T04:34:26.298Z,10.44
2018-09-28T04:36:55.702Z,10.71
2018-09-28T04:39:24.037Z,10.91
2018-09-28T04:41:53.543Z,10.88
2018-09-28T04:44:22.792Z,10.95
2018-09-28T04:46:52.913Z,10.84
2018-09-28T04:49:21.248Z,10.78
2018-09-28T04:51:50.822Z,10.77
2018-09-28T04:54:19.226Z,10.80
2018-09-28T04:56:47.538Z,10.99
2018-09-28T04:59:15.871Z,10.91
2018-09-28T05:01:44.950Z,10.89
2018-09-28T05:04:13.598Z,10.95
2018-09-28T05:06:41.982Z,11.13
2018-09-28T05:09:13.831Z,11.12
2018-09-28T05:11:42.624Z,11.14
2018-09-28T05:14:11.177Z,11.27
2018-09-28T05:16:40.058Z,11.22
2018-09-28T05:19:09.563Z,11.48
2018-09-28T05:21:37.982Z,11.45
2018-09-28T05:24:07.229Z,11.65
2018-09-28T05:26:36.020Z,11.80
2018-09-28T05:29:04.652Z,11.87
2018-09-28T05:31:33.283Z,11.97
2018-09-28T05:34:01.642Z,12.13
2018-09-28T05:36:30.179Z,11.96
2018-09-28T05:38:58.948Z,12.13
2018-09-28T05:41:27.365Z,12.17
2018-09-28T05:43:55.721Z,12.20
2018-09-28T05:46:24.285Z,12.22
2018-09-28T05:48:52.551Z,12.34
2018-09-28T05:51:21.064Z,12.43
2018-09-28T05:53:49.659Z,12.41
2018-09-28T05:56:18.447Z,12.51
2018-09-28T05:58:52.246Z,12.45
2018-09-28T06:01:26.010Z,12.52
2018-09-28T06:03:59.746Z,12.70
2018-09-28T06:06:28.227Z,12.66
2018-09-28T06:08:57.020Z,12.70
2018-09-28T06:11:25.549Z,12.60
2018-09-28T06:13:54.071Z,12.58
2018-09-28T06:16:22.461Z,12.56
2018-09-28T06:18:51.292Z,12.66
2018-09-28T06:21:19.644Z,12.81
2018-09-28T06:23:48.003Z,12.76
2018-09-28T06:26:16.421Z,12.80
2018-09-28T06:28:44.865Z,12.84
2018-09-28T06:31:13.425Z,12.87
2018-09-28T06:33:41.768Z,12.97
2018-09-28T06:36:10.289Z,12.91
2018-09-28T06:38:38.587Z,13.01
2018-09-28T06:41:13.555Z,13.01
2018-09-28T06:43:41.899Z,12.98
2018-09-28T06:46:12.627Z,13.03
2018-09-28T06:48:41.103Z,13.14
2018-09-28T06:51:09.506Z,13.21
2018-09-28T06:53:37.881Z,13.33
2018-09-28T06:56:06.431Z,13.21
2018-09-28T06:58:34.842Z,13.37
2018-09-28T07:01:03.324Z,13.61
2018-09-28T07:03:38.232Z,13.78
2018-09-28T07:06:07.277Z,13.60
2018-09-28T07:08:36.555Z,13.57
2018-09-28T07:11:04.933Z,13.77
2018-09-28T07:13:33.307Z,13.82
2018-09-28T07:16:01.771Z,13.69
2018-09-28T07:18:30.308Z,13.85
2018-09-28T07:20:58.667Z,13.93
2018-09-28T07:23:27.211Z,14.00
2018-09-28T07:25:56.174Z,14.26
2018-09-28T07:28:24.603Z,14.27
2018-09-28T07:30:53.832Z,14.34
2018-09-28T07:33:22.938Z,14.19
2018-09-28T07:35:51.522Z,14.15
2018-09-28T07:38:20.013Z,14.07
2018-09-28T07:40:48.837Z,14.11
2018-09-28T07:43:17.202Z,13.97
2018-09-28T07:45:46.436Z,13.90
2018-09-28T07:48:14.997Z,13.92
2018-09-28T07:50:43.403Z,14.01
2018-09-28T07:53:11.942Z,14.09
2018-09-28T07:55:40.384Z,14.10
2018-09-28T07:58:08.870Z,14.11
2018-09-28T08:00:37.290Z,14.33
2018-09-28T08:03:05.781Z,14.18
2018-09-28T08:05:34.407Z,14.00
2018-09-28T08:08:03.058Z,14.05
2018-09-28T08:10:31.383Z,14.16
2018-09-28T08:12:59.699Z,14.26
2018-09-28T08:15:28.138Z,14.29
2018-09-28T08:17:57.128Z,14.22
2018-09-28T08:20:26.162Z,14.32
2018-09-28T08:22:54.723Z,14.29
2018-09-28T08:25:23.270Z,14.39
2018-09-28T08:27:51.704Z,14.38
2018-09-28T08:30:20.142Z,14.33
2018-09-28T08:32:49.117Z,14.40
2018-09-28T08:35:17.733Z,14.43
2018-09-28T08:37:46.122Z,14.39
2018-09-28T08:40:14.630Z,14.65
2018-09-28T08:42:42.947Z,14.80
2018-09-28T08:45:11.238Z,14.91
2018-09-28T08:47:40.562Z,14.90
2018-09-28T08:50:08.999Z,14.96
2018-09-28T08:52:37.375Z,15.34
2018-09-28T08:55:06.039Z,15.33
2018-09-28T08:57:35.361Z,15.21
2018-09-28T09:00:04.019Z,15.12
2018-09-28T09:02:33.287Z,15.24
2018-09-28T09:05:03.156Z,15.28
2018-09-28T09:07:31.580Z,15.60
2018-09-28T09:10:00.151Z,15.63
2018-09-28T09:12:28.963Z,15.33
2018-09-28T09:14:57.466Z,15.46
2018-09-28T09:17:25.807Z,15.49
2018-09-28T09:19:54.178Z,15.71
2018-09-28T09:22:22.506Z,15.87
2018-09-28T09:24:51.302Z,15.81
2018-09-28T09:27:19.733Z,15.54
2018-09-28T09:29:48.537Z,15.61
2018-09-28T09:32:17.310Z,15.50
2018-09-28T09:34:45.594Z,15.26
2018-09-28T09:37:14.124Z,15.08
2018-09-28T09:39:42.493Z,15.46
2018-09-28T09:42:11.184Z,15.84
2018-09-28T09:44:39.570Z,15.52
2018-09-28T09:47:09.041Z,15.80
2018-09-28T09:49:38.315Z,15.65
2018-09-28T09:52:06.877Z,15.63
2018-09-28T09:54:35.622Z,15.68
2018-09-28T09:57:04.958Z,15.81
2018-09-28T09:59:34.131Z,15.67
2018-09-28T10:02:08.958Z,16.54
2018-09-28T10:04:37.987Z,16.05
2018-09-28T10:07:06.355Z,16.14
2018-09-28T10:09:34.798Z,16.16
2018-09-28T10:12:03.441Z,15.82
2018-09-28T10:14:31.783Z,15.91
2018-09-28T10:17:00.146Z,16.47
2018-09-28T10:19:28.511Z,16.75
2018-09-28T10:21:56.866Z,16.09
2018-09-28T10:24:25.486Z,16.50
2018-09-28T10:26:53.995Z,16.65
2018-09-28T10:29:23.075Z,16.44
2018-09-28T10:31:51.650Z,16.38
2018-09-28T10:34:20.690Z,16.40
2018-09-28T10:36:49.140Z,16.09
2018-09-28T10:39:17.667Z,15.75
2018-09-28T10:41:46.452Z,15.85
2018-09-28T10:44:14.867Z,15.82
2018-09-28T10:46:43.359Z,16.32
2018-09-28T10:49:11.698Z,16.60
2018-09-28T10:51:40.294Z,16.24
2018-09-28T10:54:08.610Z,16.46
2018-09-28T10:56:38.566Z,16.42
2018-09-28T10:59:07.009Z,16.65
2018-09-28T11:01:38.601Z,16.67
2018-09-28T11:04:16.118Z,16.99
2018-09-28T11:06:44.627Z,16.75
2018-09-28T11:09:13.621Z,16.93
2018-09-28T11:11:43.401Z,16.90
2018-09-28T11:14:11.811Z,16.30
2018-09-28T11:16:41.093Z,20.37
2018-09-28T11:19:09.525Z,18.22
2018-09-28T11:21:38.403Z,17.78
2018-09-28T11:24:06.863Z,19.55
2018-09-28T11:26:35.222Z,22.29
2018-09-28T11:29:04.541Z,23.61
2018-09-28T11:31:32.986Z,24.35
2018-09-28T11:34:01.411Z,24.76
2018-09-28T11:36:29.750Z,24.37
2018-09-28T11:38:58.126Z,24.86
2018-09-28T11:41:26.907Z,24.92
2018-09-28T11:43:55.340Z,25.04
2018-09-28T11:46:23.735Z,20.35
2018-09-28T11:48:52.123Z,19.65
2018-09-28T11:51:20.581Z,18.89
2018-09-28T11:53:48.943Z,17.82
2018-09-28T11:56:17.499Z,17.54
2018-09-28T11:58:46.068Z,17.57
2018-09-28T12:01:14.592Z,17.51
2018-09-28T12:03:42.977Z,16.95
2018-09-28T12:06:11.290Z,17.71
2018-09-28T12:08:39.683Z,18.45
2018-09-28T12:11:08.332Z,17.83
2018-09-28T12:13:36.777Z,17.62
2018-09-28T12:16:05.159Z,17.79
2018-09-28T12:18:33.585Z,17.35
2018-09-28T12:21:02.846Z,17.08
2018-09-28T12:23:31.389Z,18.65
2018-09-28T12:26:00.747Z,18.79
2018-09-28T12:28:29.338Z,17.39
2018-09-28T12:30:57.735Z,17.38
2018-09-28T12:33:26.324Z,17.38
2018-09-28T12:35:54.701Z,17.07
2018-09-28T12:38:23.136Z,17.13
2018-09-28T12:40:52.278Z,17.60
2018-09-28T12:43:20.687Z,17.48
2018-09-28T12:45:49.327Z,18.01
2018-09-28T12:48:18.870Z,17.85
2018-09-28T12:50:54.025Z,18.12
2018-09-28T12:53:22.571Z,17.41
2018-09-28T12:55:51.309Z,16.83
2018-09-28T12:58:19.828Z,16.57
2018-09-28T13:00:49.675Z,16.48
2018-09-28T13:03:18.932Z,17.39
2018-09-28T13:05:47.290Z,19.00
2018-09-28T13:08:16.267Z,20.24
2018-09-28T13:10:45.804Z,23.83
2018-09-28T13:13:14.372Z,22.36
2018-09-28T13:15:42.832Z,23.83
2018-09-28T13:18:11.190Z,22.84
2018-09-28T13:20:40.558Z,25.41
2018-09-28T13:23:08.965Z,26.49
2018-09-28T13:25:37.482Z,26.04
2018-09-28T13:28:06.138Z,23.91
2018-09-28T13:30:35.179Z,22.24
2018-09-28T13:33:07.133Z,25.87
2018-09-28T13:35:35.611Z,28.43
2018-09-28T13:38:04.171Z,28.01
2018-09-28T13:40:33.138Z,27.42
2018-09-28T13:43:02.301Z,27.63
2018-09-28T13:45:31.373Z,28.40
2018-09-28T13:48:00.764Z,22.58
2018-09-28T13:50:29.751Z,20.09
2018-09-28T13:52:58.248Z,20.20
2018-09-28T13:55:26.784Z,18.84
2018-09-28T13:57:55.635Z,18.20
2018-09-28T14:00:24.364Z,17.98
2018-09-28T14:02:52.737Z,17.98
2018-09-28T14:05:21.292Z,17.89
2018-09-28T14:07:49.810Z,17.10
2018-09-28T14:10:18.219Z,17.14
2018-09-28T14:12:46.898Z,16.90
2018-09-28T14:15:16.016Z,16.88
2018-09-28T14:17:44.596Z,16.96
2018-09-28T14:20:13.280Z,17.07
2018-09-28T14:22:42.201Z,16.98
2018-09-28T14:25:11.258Z,16.68
2018-09-28T14:27:40.590Z,16.66
2018-09-28T14:30:09.248Z,16.44
2018-09-28T14:32:38.299Z,16.05
2018-09-28T14:35:07.120Z,16.01
2018-09-28T14:37:35.479Z,16.04
2018-09-28T14:40:03.870Z,15.88
2018-09-28T14:42:32.408Z,15.80
2018-09-28T14:45:00.951Z,15.95
2018-09-28T14:47:29.440Z,15.90
2018-09-28T14:49:57.950Z,15.87
2018-09-28T14:52:26.448Z,15.67
2018-09-28T14:54:54.930Z,15.63
2018-09-28T14:57:23.295Z,15.70
2018-09-28T14:59:52.682Z,15.48
2018-09-28T15:02:23.276Z,15.62
2018-09-28T15:04:54.436Z,15.81
2018-09-28T15:07:22.813Z,15.64
2018-09-28T15:09:51.824Z,15.46
2018-09-28T15:12:25.490Z,15.50
2018-09-28T15:14:53.880Z,15.44
2018-09-28T15:17:22.514Z,15.22
2018-09-28T15:19:50.854Z,15.12
2018-09-28T15:22:19.538Z,14.93
2018-09-28T15:24:47.878Z,14.97
2018-09-28T15:27:16.384Z,14.72
2018-09-28T15:29:45.023Z,14.86
2018-09-28T15:32:13.647Z,14.84
2018-09-28T15:34:43.078Z,14.79
2018-09-28T15:37:11.512Z,14.79
2018-09-28T15:39:40.003Z,14.67
2018-09-28T15:42:08.519Z,14.75
2018-09-28T15:44:36.991Z,14.54
2018-09-28T15:47:05.625Z,14.30
2018-09-28T15:49:34.035Z,14.40
2018-09-28T15:52:02.546Z,14.40
2018-09-28T15:54:31.266Z,14.50
2018-09-28T15:56:59.611Z,14.43
2018-09-28T15:59:28.399Z,14.53
2018-09-28T16:01:57.238Z,14.48
2018-09-28T16:04:25.534Z,14.52
2018-09-28T16:06:54.449Z,14.50
2018-09-28T16:09:23.011Z,14.37
2018-09-28T16:11:51.555Z,14.22
2018-09-28T16:14:19.926Z,14.23
2018-09-28T16:16:49.891Z,14.10
2018-09-28T16:19:18.706Z,14.00
2018-09-28T16:21:47.454Z,13.97
2018-09-28T16:24:16.115Z,14.01
2018-09-28T16:26:44.423Z,13.75
2018-09-28T16:29:13.139Z,13.74
2018-09-28T16:31:42.128Z,13.49
2018-09-28T16:34:13.862Z,13.53
2018-09-28T16:36:43.390Z,13.45
2018-09-28T16:39:12.586Z,13.34
2018-09-28T16:41:42.386Z,13.38
2018-09-28T16:44:11.308Z,13.31
2018-09-28T16:46:39.976Z,13.21
2018-09-28T16:49:08.446Z,13.10
2018-09-28T16:51:36.998Z,12.99
2018-09-28T16:54:06.817Z,13.01
2018-09-28T16:56:35.231Z,12.95
2018-09-28T16:59:03.786Z,12.86
2018-09-28T17:01:32.106Z,12.82
2018-09-28T17:04:00.674Z,12.78
2018-09-28T17:06:29.070Z,12.73
2018-09-28T17:08:57.441Z,12.71
2018-09-28T17:11:25.841Z,12.50
2018-09-28T17:13:54.188Z,12.47
2018-09-28T17:16:23.056Z,12.29
2018-09-28T17:18:51.574Z,12.18
2018-09-28T17:21:20.142Z,12.06
2018-09-28T17:23:48.523Z,12.07
2018-09-28T17:26:17.214Z,11.89
2018-09-28T17:28:45.660Z,11.86
2018-09-28T17:31:13.968Z,11.75
2018-09-28T17:33:42.315Z,11.65
2018-09-28T17:36:10.824Z,11.50
2018-09-28T17:38:39.148Z,11.36
2018-09-28T17:41:07.467Z,11.25
2018-09-28T17:43:35.953Z,11.21
2018-09-28T17:46:04.397Z,11.22
2018-09-28T17:48:33.223Z,11.08
2018-09-28T17:51:02.378Z,11.01
2018-09-28T17:53:31.764Z,11.00
2018-09-28T17:56:00.319Z,11.02
2018-09-28T17:58:30.095Z,11.05
2018-09-28T18:00:59.706Z,10.95
2018-09-28T18:03:30.265Z,10.98
2018-09-28T18:05:59.536Z,10.97
2018-09-28T18:08:28.178Z,10.82
2018-09-28T18:10:57.143Z,10.82
2018-09-28T18:13:26.594Z,10.69
2018-09-28T18:15:55.359Z,10.63
2018-09-28T18:18:24.070Z,10.60
2018-09-28T18:20:52.431Z,10.51
2018-09-28T18:23:21.617Z,10.39
2018-09-28T18:25:50.737Z,10.34
2018-09-28T18:28:20.431Z,10.23
2018-09-28T18:30:49.576Z,10.14
2018-09-28T18:33:18.168Z,10.07
2018-09-28T18:35:46.555Z,10.03
2018-09-28T18:38:15.075Z,9.97
2018-09-28T18:40:43.563Z,9.94
2018-09-28T18:43:12.175Z,9.83
2018-09-28T18:45:41.531Z,9.72
2018-09-28T18:48:11.099Z,9.71
2018-09-28T18:50:41.551Z,9.56
2018-09-28T18:53:11.206Z,9.47
2018-09-28T18:55:44.170Z,9.36
2018-09-28T18:58:13.356Z,9.25
2018-09-28T19:00:42.608Z,9.18
2018-09-28T19:03:13.381Z,9.14
2018-09-28T19:05:41.933Z,9.01
2018-09-28T19:08:10.880Z,8.92
2018-09-28T19:10:39.994Z,8.87
2018-09-28T19:13:08.674Z,8.83
2018-09-28T19:15:37.465Z,8.75
2018-09-28T19:18:05.932Z,8.70
2018-09-28T19:20:35.516Z,8.73
2018-09-28T19:23:04.234Z,8.64
2018-09-28T19:25:33.070Z,8.53
2018-09-28T19:28:04.753Z,8.42
2018-09-28T19:30:34.743Z,8.31
2018-09-28T19:33:03.836Z,8.36
2018-09-28T19:35:32.702Z,8.27
2018-09-28T19:38:03.213Z,8.40
2018-09-28T19:40:31.804Z,8.37
2018-09-28T19:43:00.902Z,8.37
2018-09-28T19:45:30.104Z,8.32
2018-09-28T19:47:58.527Z,8.27
2018-09-28T19:50:27.002Z,8.26
2018-09-28T19:52:55.417Z,8.26
2018-09-28T19:55:24.039Z,8.14
2018-09-28T19:57:52.796Z,8.16
2018-09-28T20:00:21.126Z,8.16
2018-09-28T20:02:49.596Z,8.13
2018-09-28T20:05:18.520Z,8.10
2018-09-28T20:07:47.037Z,8.03
2018-09-28T20:10:16.526Z,8.01
2018-09-28T20:12:45.061Z,7.94
2018-09-28T20:15:13.837Z,7.87
2018-09-28T20:17:42.929Z,7.84
2018-09-28T20:20:11.861Z,7.81
2018-09-28T20:22:40.734Z,7.82
2018-09-28T20:25:09.938Z,7.82
2018-09-28T20:27:38.921Z,7.81
2018-09-28T20:30:07.832Z,7.83
2018-09-28T20:32:36.342Z,7.73
2018-09-28T20:35:04.805Z,7.74
2018-09-28T20:37:33.167Z,7.76
2018-09-28T20:40:01.893Z,7.63
2018-09-28T20:42:31.929Z,7.61
2018-09-28T20:45:02.193Z,7.59
2018-09-28T20:47:33.387Z,7.49
2018-09-28T20:50:02.200Z,7.36
2018-09-28T20:52:32.371Z,7.34
2018-09-28T20:55:00.723Z,7.29
2018-09-28T20:57:29.186Z,7.24
2018-09-28T20:59:57.473Z,7.21
2018-09-28T21:02:26.676Z,7.24
2018-09-28T21:04:55.054Z,7.20
2018-09-28T21:07:23.504Z,7.23
2018-09-28T21:09:51.998Z,7.21
2018-09-28T21:12:21.307Z,7.21
2018-09-28T21:14:49.699Z,7.21
2018-09-28T21:17:18.061Z,7.16
2018-09-28T21:19:46.412Z,7.14
2018-09-28T21:22:15.023Z,7.13
2018-09-28T21:24:43.407Z,7.10
2018-09-28T21:27:11.832Z,7.02
2018-09-28T21:29:40.439Z,7.07
2018-09-28T21:32:08.823Z,7.11
2018-09-28T21:34:37.663Z,7.01
2018-09-28T21:37:06.092Z,7.06
2018-09-28T21:39:34.755Z,7.09
2018-09-28T21:42:03.300Z,7.09
2018-09-28T21:44:31.606Z,7.04
2018-09-28T21:47:00.083Z,7.00
2018-09-28T21:49:28.361Z,7.03
2018-09-28T21:51:56.971Z,7.11
2018-09-28T21:54:25.416Z,7.06
2018-09-28T21:56:53.934Z,7.14
2018-09-28T21:59:22.309Z,7.17
2018-09-28T22:01:51.862Z,7.22
2018-09-28T22:04:20.798Z,7.21
2018-09-28T22:06:49.227Z,7.25
2018-09-28T22:09:17.696Z,7.29
2018-09-28T22:11:46.478Z,7.29
2018-09-28T22:14:15.815Z,7.25
2018-09-28T22:16:44.444Z,7.28
2018-09-28T22:19:13.361Z,7.26
2018-09-28T22:21:41.712Z,7.31
2018-09-28T22:24:10.619Z,7.24
2018-09-28T22:26:39.152Z,7.26
2018-09-28T22:29:07.538Z,7.22
2018-09-28T22:31:36.039Z,7.18
2018-09-28T22:34:04.521Z,7.22
2018-09-28T22:36:32.864Z,7.18
2018-09-28T22:39:01.232Z,7.16
2018-09-28T22:41:29.782Z,7.18
2018-09-28T22:43:58.259Z,7.17
2018-09-28T22:46:27.077Z,7.14
2018-09-28T22:49:07.927Z,7.17
2018-09-28T22:51:36.287Z,7.08
2018-09-28T22:54:11.458Z,7.09
2018-09-28T22:56:39.835Z,7.06
2018-09-28T22:59:09.141Z,7.11
2018-09-28T23:01:39.676Z,7.11
2018-09-28T23:04:08.982Z,7.03
2018-09-28T23:06:38.180Z,7.05
2018-09-28T23:09:07.626Z,6.98
2018-09-28T23:11:36.224Z,7.00
2018-09-28T23:14:04.522Z,7.05
2018-09-28T23:16:33.059Z,7.00
2018-09-28T23:19:01.818Z,7.01
2018-09-28T23:21:30.797Z,7.10
2018-09-28T23:23:59.809Z,7.12
2018-09-28T23:26:28.184Z,7.24
2018-09-28T23:28:56.758Z,7.25
2018-09-28T23:31:25.228Z,7.40
2018-09-28T23:33:54.695Z,7.41
2018-09-28T23:36:29.750Z,7.45
2018-09-28T23:38:58.097Z,7.41
2018-09-28T23:41:27.009Z,7.42
2018-09-28T23:43:55.477Z,7.51
2018-09-28T23:46:23.985Z,7.47
2018-09-28T23:48:52.963Z,7.48
2018-09-28T23:51:21.372Z,7.52
2018-09-28T23:53:49.640Z,7.47
2018-09-28T23:56:17.954Z,7.52
2018-09-28T23:58:46.262Z,7.60
